createdAt,value
2023-04-22T00:00:52.497Z,7.66
2023-04-22T00:01:52.588Z,7.56
2023-04-22T00:02:52.753Z,7.66
2023-04-22T00:03:52.896Z,7.57
2023-04-22T00:04:52.908Z,7.60
2023-04-22T00:05:52.914Z,7.50
2023-04-22T00:06:52.795Z,7.64
2023-04-22T00:07:52.834Z,7.59
2023-04-22T00:08:52.894Z,7.59
2023-04-22T00:09:52.932Z,7.52
2023-04-22T00:10:52.987Z,7.44
2023-04-22T00:11:53.041Z,7.47
2023-04-22T00:12:53.091Z,7.44
2023-04-22T00:13:53.131Z,7.41
2023-04-22T00:14:53.178Z,7.46
2023-04-22T00:15:53.251Z,7.44
2023-04-22T00:16:53.269Z,7.42
2023-04-22T00:17:53.380Z,7.39
2023-04-22T00:18:53.394Z,7.42
2023-04-22T00:19:53.420Z,7.39
2023-04-22T00:20:53.472Z,7.34
2023-04-22T00:21:53.522Z,7.35
2023-04-22T00:22:53.570Z,7.40
2023-04-22T00:23:53.620Z,7.30
2023-04-22T00:24:53.668Z,7.19
2023-04-22T00:25:53.715Z,7.30
2023-04-22T00:26:53.756Z,7.35
2023-04-22T00:27:53.802Z,7.25
2023-04-22T00:28:53.857Z,7.25
2023-04-22T00:29:53.897Z,7.25
2023-04-22T00:30:54.013Z,7.24
2023-04-22T00:31:54.061Z,7.25
2023-04-22T00:32:54.089Z,7.18
2023-04-22T00:33:54.098Z,7.20
2023-04-22T00:34:54.157Z,7.18
2023-04-22T00:35:54.208Z,7.20
2023-04-22T00:36:54.252Z,7.10
2023-04-22T00:37:54.300Z,7.12
2023-04-22T00:38:54.360Z,7.11
2023-04-22T00:39:54.429Z,7.08
2023-04-22T00:40:54.460Z,7.05
2023-04-22T00:41:54.527Z,7.03
2023-04-22T00:42:54.565Z,7.18
2023-04-22T00:43:54.628Z,7.05
2023-04-22T00:44:54.662Z,7.03
2023-04-22T00:45:54.715Z,7.03
2023-04-22T00:46:54.830Z,7.04
2023-04-22T00:47:54.929Z,7.01
2023-04-22T00:48:54.870Z,7.00
2023-04-22T00:49:54.932Z,6.93
2023-04-22T00:50:54.983Z,6.94
2023-04-22T00:51:55.028Z,6.94
2023-04-22T00:52:55.081Z,6.90
2023-04-22T00:53:55.126Z,6.93
2023-04-22T00:54:55.203Z,6.89
2023-04-22T00:55:55.253Z,6.88
2023-04-22T00:56:55.281Z,6.87
2023-04-22T00:57:55.336Z,6.86
2023-04-22T00:58:55.383Z,6.85
2023-04-22T00:59:55.425Z,6.82
2023-04-22T01:00:55.522Z,6.82
2023-04-22T01:01:55.544Z,6.80
2023-04-22T01:02:55.857Z,6.77
2023-04-22T01:03:55.725Z,6.76
2023-04-22T01:04:55.688Z,6.80
2023-04-22T01:05:55.745Z,6.71
2023-04-22T01:06:55.786Z,6.71
2023-04-22T01:07:55.837Z,6.68
2023-04-22T01:08:55.890Z,6.67
2023-04-22T01:09:55.940Z,6.70
2023-04-22T01:10:55.992Z,6.69
2023-04-22T01:11:56.039Z,6.67
2023-04-22T01:12:56.096Z,6.68
2023-04-22T01:13:56.161Z,6.60
2023-04-22T01:14:56.202Z,6.66
2023-04-22T01:15:56.252Z,6.52
2023-04-22T01:16:56.371Z,6.55
2023-04-22T01:17:56.378Z,6.57
2023-04-22T01:18:56.413Z,6.52
2023-04-22T01:19:56.472Z,6.56
2023-04-22T01:20:56.529Z,6.50
2023-04-22T01:21:56.577Z,6.44
2023-04-22T01:22:56.619Z,6.48
2023-04-22T01:23:56.672Z,6.48
2023-04-22T01:24:56.722Z,6.44
2023-04-22T01:25:56.784Z,6.47
2023-04-22T01:26:56.831Z,6.41
2023-04-22T01:27:56.885Z,6.44
2023-04-22T01:28:56.929Z,6.43
2023-04-22T01:29:56.969Z,6.40
2023-04-22T01:30:57.020Z,6.40
2023-04-22T01:31:57.135Z,6.36
2023-04-22T01:32:57.198Z,6.38
2023-04-22T01:33:57.178Z,6.37
2023-04-22T01:34:57.233Z,6.27
2023-04-22T01:35:57.283Z,6.35
2023-04-22T01:36:57.336Z,6.31
2023-04-22T01:37:57.388Z,6.29
2023-04-22T01:38:57.457Z,6.28
2023-04-22T01:39:57.493Z,6.21
2023-04-22T01:40:57.551Z,6.24
2023-04-22T01:41:57.598Z,6.27
2023-04-22T01:42:57.644Z,6.21
2023-04-22T01:43:57.708Z,6.15
2023-04-22T01:44:57.766Z,6.16
2023-04-22T01:45:57.908Z,6.15
2023-04-22T01:46:57.853Z,6.19
2023-04-22T01:47:57.964Z,6.17
2023-04-22T01:48:57.966Z,6.05
2023-04-22T01:49:58.025Z,6.07
2023-04-22T01:50:58.081Z,6.12
2023-04-22T01:51:58.133Z,6.07
2023-04-22T01:52:58.184Z,6.01
2023-04-22T01:53:58.250Z,6.02
2023-04-22T01:54:58.295Z,5.99
2023-04-22T01:55:58.365Z,6.04
2023-04-22T01:56:58.422Z,5.96
2023-04-22T01:57:58.497Z,5.98
2023-04-22T01:58:58.515Z,5.98
2023-04-22T01:59:58.568Z,5.97
2023-04-22T02:00:58.667Z,5.90
2023-04-22T02:01:58.736Z,6.01
2023-04-22T02:02:58.822Z,5.95
2023-04-22T02:03:58.795Z,5.89
2023-04-22T02:04:58.903Z,5.92
2023-04-22T02:05:58.906Z,5.87
2023-04-22T02:06:58.958Z,5.92
2023-04-22T02:07:59.006Z,5.88
2023-04-22T02:08:59.084Z,5.84
2023-04-22T02:09:59.133Z,5.87
2023-04-22T02:10:59.186Z,5.84
2023-04-22T02:11:59.242Z,5.88
2023-04-22T02:12:59.301Z,5.89
2023-04-22T02:13:59.334Z,5.86
2023-04-22T02:14:59.407Z,5.83
2023-04-22T02:15:59.470Z,5.84
2023-04-22T02:16:59.505Z,5.86
2023-04-22T02:17:59.567Z,5.79
2023-04-22T02:18:59.626Z,5.73
2023-04-22T02:19:59.741Z,5.80
2023-04-22T02:20:59.737Z,5.78
2023-04-22T02:21:59.795Z,5.76
2023-04-22T02:22:59.848Z,5.71
2023-04-22T02:23:59.900Z,5.75
2023-04-22T02:24:59.973Z,5.69
2023-04-22T02:26:00.019Z,5.66
2023-04-22T02:27:00.065Z,5.70
2023-04-22T02:28:00.134Z,5.67
2023-04-22T02:29:00.174Z,5.67
2023-04-22T02:30:00.266Z,5.62
2023-04-22T02:31:00.310Z,5.61
2023-04-22T02:32:00.359Z,5.60
2023-04-22T02:33:00.451Z,5.65
2023-04-22T02:34:00.478Z,5.59
2023-04-22T02:35:00.545Z,5.54
2023-04-22T02:36:00.591Z,5.53
2023-04-22T02:37:00.656Z,5.57
2023-04-22T02:38:00.714Z,5.47
2023-04-22T02:39:00.777Z,5.54
2023-04-22T02:40:00.840Z,5.49
2023-04-22T02:41:00.909Z,5.49
2023-04-22T02:42:00.954Z,5.49
2023-04-22T02:43:01.019Z,5.44
2023-04-22T02:44:01.086Z,5.46
2023-04-22T02:45:01.227Z,5.44
2023-04-22T02:46:01.205Z,5.42
2023-04-22T02:47:01.374Z,5.41
2023-04-22T02:48:01.437Z,5.39
2023-04-22T02:49:01.391Z,5.36
2023-04-22T02:50:01.435Z,5.38
2023-04-22T02:51:01.491Z,5.36
2023-04-22T02:52:01.674Z,5.35
2023-04-22T02:53:01.640Z,5.32
2023-04-22T02:54:01.677Z,5.27
2023-04-22T02:55:01.741Z,5.32
2023-04-22T02:56:01.796Z,5.32
2023-04-22T02:57:01.860Z,5.30
2023-04-22T02:58:01.941Z,5.29
2023-04-22T02:59:02.014Z,5.31
2023-04-22T03:00:02.057Z,5.24
2023-04-22T03:01:02.206Z,5.26
2023-04-22T03:02:03.842Z,5.19
2023-04-22T03:03:02.313Z,5.31
2023-04-22T03:04:02.393Z,5.31
2023-04-22T03:05:02.217Z,5.24
2023-04-22T03:06:02.270Z,5.23
2023-04-22T03:07:02.250Z,5.17
2023-04-22T03:08:02.237Z,5.16
2023-04-22T03:09:02.241Z,5.14
2023-04-22T03:10:02.244Z,5.16
2023-04-22T03:11:02.260Z,5.10
2023-04-22T03:12:02.269Z,5.13
2023-04-22T03:13:02.300Z,5.15
2023-04-22T03:14:02.287Z,5.07
2023-04-22T03:15:02.299Z,5.09
2023-04-22T03:16:02.346Z,5.06
2023-04-22T03:17:02.581Z,5.08
2023-04-22T03:18:02.384Z,5.04
2023-04-22T03:19:02.318Z,5.02
2023-04-22T03:20:02.334Z,5.01
2023-04-22T03:21:02.339Z,4.97
2023-04-22T03:22:02.338Z,4.97
2023-04-22T03:23:02.363Z,5.02
2023-04-22T03:24:02.373Z,4.97
2023-04-22T03:25:02.398Z,4.92
2023-04-22T03:26:02.426Z,4.86
2023-04-22T03:27:02.404Z,4.95
2023-04-22T03:28:02.413Z,4.93
2023-04-22T03:29:02.410Z,4.91
2023-04-22T03:30:02.495Z,4.89
2023-04-22T03:31:02.442Z,4.87
2023-04-22T03:32:02.493Z,4.87
2023-04-22T03:33:02.605Z,4.83
2023-04-22T03:34:02.595Z,4.86
2023-04-22T03:35:02.654Z,4.76
2023-04-22T03:36:02.722Z,4.82
2023-04-22T03:37:02.794Z,4.80
2023-04-22T03:38:02.863Z,4.80
2023-04-22T03:39:02.921Z,4.74
2023-04-22T03:40:02.995Z,4.76
2023-04-22T03:41:03.052Z,4.76
2023-04-22T03:42:03.120Z,4.72
2023-04-22T03:43:03.178Z,4.73
2023-04-22T03:44:03.259Z,4.73
2023-04-22T03:45:03.323Z,4.72
2023-04-22T03:46:03.467Z,4.70
2023-04-22T03:47:03.459Z,4.74
2023-04-22T03:48:03.553Z,4.68
2023-04-22T03:49:03.598Z,4.70
2023-04-22T03:50:03.643Z,4.66
2023-04-22T03:51:03.730Z,4.63
2023-04-22T03:52:03.869Z,4.64
2023-04-22T03:53:03.858Z,4.65
2023-04-22T03:54:03.907Z,4.71
2023-04-22T03:55:03.976Z,4.63
2023-04-22T03:56:04.034Z,4.64
2023-04-22T03:57:04.101Z,4.57
2023-04-22T03:58:04.168Z,4.54
2023-04-22T03:59:04.227Z,4.53
2023-04-22T04:00:04.285Z,4.52
2023-04-22T04:01:04.354Z,4.53
2023-04-22T04:02:04.506Z,4.51
2023-04-22T04:03:04.677Z,4.49
2023-04-22T04:04:04.836Z,4.51
2023-04-22T04:05:04.887Z,4.47
2023-04-22T04:06:04.839Z,4.45
2023-04-22T04:07:04.719Z,4.53
2023-04-22T04:08:04.778Z,4.47
2023-04-22T04:09:04.841Z,4.44
2023-04-22T04:10:04.901Z,4.45
2023-04-22T04:11:04.961Z,4.44
2023-04-22T04:12:05.029Z,4.43
2023-04-22T04:13:05.090Z,4.42
2023-04-22T04:14:05.356Z,4.38
2023-04-22T04:15:05.209Z,4.36
2023-04-22T04:16:05.542Z,4.35
2023-04-22T04:17:05.333Z,4.34
2023-04-22T04:18:05.509Z,4.33
2023-04-22T04:19:05.470Z,4.37
2023-04-22T04:20:05.533Z,4.31
2023-04-22T04:21:05.596Z,4.34
2023-04-22T04:22:05.644Z,4.32
2023-04-22T04:23:05.709Z,4.33
2023-04-22T04:24:05.791Z,4.28
2023-04-22T04:25:05.841Z,4.34
2023-04-22T04:26:05.927Z,4.34
2023-04-22T04:27:05.968Z,4.28
2023-04-22T04:28:06.039Z,4.29
2023-04-22T04:29:06.095Z,4.33
2023-04-22T04:30:06.168Z,4.26
2023-04-22T04:31:06.272Z,4.26
2023-04-22T04:32:06.307Z,4.31
2023-04-22T04:33:06.405Z,4.25
2023-04-22T04:34:06.433Z,4.22
2023-04-22T04:35:06.488Z,4.22
2023-04-22T04:36:06.533Z,4.21
2023-04-22T04:37:06.628Z,4.25
2023-04-22T04:38:06.689Z,4.21
2023-04-22T04:39:06.770Z,4.16
2023-04-22T04:40:06.798Z,4.20
2023-04-22T04:41:06.860Z,4.20
2023-04-22T04:42:06.926Z,4.20
2023-04-22T04:43:07.889Z,4.13
2023-04-22T04:44:07.063Z,4.17
2023-04-22T04:45:07.127Z,4.09
2023-04-22T04:46:07.230Z,4.12
2023-04-22T04:47:07.259Z,4.12
2023-04-22T04:48:07.393Z,4.14
2023-04-22T04:49:07.392Z,4.13
2023-04-22T04:50:07.473Z,4.09
2023-04-22T04:51:07.592Z,4.15
2023-04-22T04:52:07.610Z,4.10
2023-04-22T04:53:07.673Z,4.03
2023-04-22T04:54:07.744Z,4.06
2023-04-22T04:55:07.882Z,4.04
2023-04-22T04:56:07.912Z,4.03
2023-04-22T04:57:07.931Z,4.02
2023-04-22T04:58:07.995Z,4.01
2023-04-22T04:59:08.069Z,3.98
2023-04-22T05:00:08.149Z,3.93
2023-04-22T05:01:08.210Z,3.96
2023-04-22T05:02:08.617Z,3.98
2023-04-22T05:03:08.557Z,3.95
2023-04-22T05:04:08.539Z,3.98
2023-04-22T05:05:09.407Z,3.93
2023-04-22T05:06:08.594Z,3.83
2023-04-22T05:07:08.633Z,3.90
2023-04-22T05:08:08.709Z,3.80
2023-04-22T05:09:08.792Z,3.84
2023-04-22T05:10:08.873Z,3.87
2023-04-22T05:11:08.929Z,3.78
2023-04-22T05:12:08.982Z,3.86
2023-04-22T05:13:09.073Z,3.80
2023-04-22T05:14:09.128Z,3.79
2023-04-22T05:15:09.211Z,3.81
2023-04-22T05:16:09.288Z,3.80
2023-04-22T05:17:09.323Z,3.75
2023-04-22T05:18:09.427Z,3.77
2023-04-22T05:19:09.456Z,3.75
2023-04-22T05:20:09.521Z,3.76
2023-04-22T05:21:09.592Z,3.80
2023-04-22T05:22:09.654Z,3.78
2023-04-22T05:23:09.717Z,3.77
2023-04-22T05:24:09.816Z,3.72
2023-04-22T05:25:09.867Z,3.73
2023-04-22T05:26:09.932Z,3.72
2023-04-22T05:27:09.994Z,3.73
2023-04-22T05:28:10.053Z,3.67
2023-04-22T05:29:10.130Z,3.70
2023-04-22T05:30:10.204Z,3.70
2023-04-22T05:31:10.256Z,3.67
2023-04-22T05:32:10.476Z,3.68
2023-04-22T05:33:10.459Z,3.71
2023-04-22T05:34:10.450Z,3.67
2023-04-22T05:35:10.525Z,3.65
2023-04-22T05:36:10.581Z,3.67
2023-04-22T05:37:10.659Z,3.73
2023-04-22T05:38:10.709Z,3.66
2023-04-22T05:39:10.769Z,3.66
2023-04-22T05:40:10.843Z,3.63
2023-04-22T05:41:10.898Z,3.63
2023-04-22T05:42:10.962Z,3.65
2023-04-22T05:43:11.037Z,3.63
2023-04-22T05:44:11.092Z,3.62
2023-04-22T05:45:11.157Z,3.65
2023-04-22T05:46:11.328Z,3.58
2023-04-22T05:47:11.309Z,3.64
2023-04-22T05:48:11.489Z,3.60
2023-04-22T05:49:11.422Z,3.55
2023-04-22T05:50:11.488Z,3.57
2023-04-22T05:51:11.554Z,3.57
2023-04-22T05:52:11.627Z,3.55
2023-04-22T05:53:11.701Z,3.51
2023-04-22T05:54:11.755Z,3.47
2023-04-22T05:55:11.813Z,3.45
2023-04-22T05:56:11.882Z,3.46
2023-04-22T05:57:11.943Z,3.52
2023-04-22T05:58:12.018Z,3.49
2023-04-22T05:59:12.079Z,3.48
2023-04-22T06:00:12.148Z,3.49
2023-04-22T06:01:12.213Z,3.49
2023-04-22T06:02:12.356Z,3.45
2023-04-22T06:03:12.478Z,3.48
2023-04-22T06:04:12.687Z,3.44
2023-04-22T06:05:12.501Z,3.46
2023-04-22T06:06:12.506Z,3.41
2023-04-22T06:07:12.553Z,3.41
2023-04-22T06:08:12.608Z,3.43
2023-04-22T06:09:12.651Z,3.35
2023-04-22T06:10:12.677Z,3.35
2023-04-22T06:11:12.711Z,3.34
2023-04-22T06:12:12.749Z,3.30
2023-04-22T06:13:12.783Z,3.24
2023-04-22T06:14:12.820Z,3.20
2023-04-22T06:15:12.852Z,3.15
2023-04-22T06:16:12.992Z,3.24
2023-04-22T06:17:12.915Z,3.18
2023-04-22T06:18:12.927Z,3.13
2023-04-22T06:19:12.953Z,3.11
2023-04-22T06:20:13.004Z,3.06
2023-04-22T06:21:13.007Z,3.10
2023-04-22T06:22:13.013Z,3.05
2023-04-22T06:23:13.018Z,3.05
2023-04-22T06:24:13.044Z,3.06
2023-04-22T06:25:13.045Z,3.05
2023-04-22T06:26:13.022Z,3.00
2023-04-22T06:27:13.037Z,3.07
2023-04-22T06:28:13.055Z,3.03
2023-04-22T06:29:13.064Z,2.96
2023-04-22T06:30:13.072Z,2.98
2023-04-22T06:31:13.464Z,2.92
2023-04-22T06:32:13.113Z,2.96
2023-04-22T06:33:13.196Z,2.91
2023-04-22T06:34:13.221Z,2.95
2023-04-22T06:35:13.280Z,2.92
2023-04-22T06:36:13.340Z,2.92
2023-04-22T06:37:13.397Z,2.97
2023-04-22T06:38:13.453Z,2.91
2023-04-22T06:39:13.511Z,2.93
2023-04-22T06:40:13.563Z,2.89
2023-04-22T06:41:13.602Z,2.85
2023-04-22T06:42:13.667Z,2.91
2023-04-22T06:43:13.737Z,2.88
2023-04-22T06:44:13.797Z,2.94
2023-04-22T06:45:13.865Z,2.82
2023-04-22T06:46:13.945Z,2.90
2023-04-22T06:47:14.004Z,2.78
2023-04-22T06:48:14.068Z,2.88
2023-04-22T06:49:14.121Z,2.80
2023-04-22T06:50:14.207Z,2.83
2023-04-22T06:51:14.260Z,2.82
2023-04-22T06:52:14.307Z,2.79
2023-04-22T06:53:14.373Z,2.80
2023-04-22T06:54:14.411Z,2.82
2023-04-22T06:55:14.467Z,2.78
2023-04-22T06:56:14.539Z,2.83
2023-04-22T06:57:14.567Z,2.72
2023-04-22T06:58:14.612Z,2.72
2023-04-22T06:59:14.653Z,2.80
2023-04-22T07:00:14.693Z,2.76
2023-04-22T07:01:14.730Z,2.76
2023-04-22T07:02:14.851Z,2.68
2023-04-22T07:03:14.863Z,2.76
2023-04-22T07:04:14.856Z,2.74
2023-04-22T07:05:14.843Z,2.79
2023-04-22T07:06:14.868Z,2.71
2023-04-22T07:07:14.889Z,2.72
2023-04-22T07:08:14.897Z,2.72
2023-04-22T07:09:14.897Z,2.70
2023-04-22T07:10:14.910Z,2.69
2023-04-22T07:11:14.895Z,2.74
2023-04-22T07:12:14.902Z,2.73
2023-04-22T07:13:14.902Z,2.70
2023-04-22T07:14:14.925Z,2.72
2023-04-22T07:15:14.977Z,2.74
2023-04-22T07:16:15.068Z,2.75
2023-04-22T07:17:15.096Z,2.69
2023-04-22T07:18:15.156Z,2.68
2023-04-22T07:19:15.206Z,2.64
2023-04-22T07:20:15.269Z,2.65
2023-04-22T07:21:15.338Z,2.71
2023-04-22T07:22:15.382Z,2.67
2023-04-22T07:23:15.432Z,2.70
2023-04-22T07:24:15.485Z,2.70
2023-04-22T07:25:15.530Z,2.66
2023-04-22T07:26:15.569Z,2.71
2023-04-22T07:27:15.617Z,2.68
2023-04-22T07:28:15.652Z,2.62
2023-04-22T07:29:15.689Z,2.68
2023-04-22T07:30:15.741Z,2.68
2023-04-22T07:31:15.793Z,2.63
2023-04-22T07:32:15.807Z,2.64
2023-04-22T07:33:15.858Z,2.67
2023-04-22T07:34:15.909Z,2.64
2023-04-22T07:35:15.950Z,2.68
2023-04-22T07:36:15.992Z,2.65
2023-04-22T07:37:16.031Z,2.72
2023-04-22T07:38:16.066Z,2.65
2023-04-22T07:39:16.104Z,2.72
2023-04-22T07:40:16.144Z,2.68
2023-04-22T07:41:16.177Z,2.70
2023-04-22T07:42:16.219Z,2.65
2023-04-22T07:43:16.263Z,2.67
2023-04-22T07:44:16.298Z,2.66
2023-04-22T07:45:16.357Z,2.69
2023-04-22T07:46:16.444Z,2.59
2023-04-22T07:47:16.390Z,2.67
2023-04-22T07:48:16.429Z,2.69
2023-04-22T07:49:16.453Z,2.68
2023-04-22T07:50:16.485Z,2.68
2023-04-22T07:51:16.508Z,2.64
2023-04-22T07:52:16.539Z,2.71
2023-04-22T07:53:16.563Z,2.66
2023-04-22T07:54:16.581Z,2.68
2023-04-22T07:55:16.614Z,2.69
2023-04-22T07:56:16.643Z,2.71
2023-04-22T07:57:16.658Z,2.67
2023-04-22T07:58:16.692Z,2.70
2023-04-22T07:59:16.736Z,2.66
2023-04-22T08:00:16.761Z,2.67
2023-04-22T08:01:18.726Z,2.65
2023-04-22T08:02:16.898Z,2.77
2023-04-22T08:03:16.955Z,2.68
2023-04-22T08:04:16.967Z,2.68
2023-04-22T08:05:16.763Z,2.74
2023-04-22T08:06:16.748Z,2.73
2023-04-22T08:07:32.464Z,2.73
2023-04-22T08:08:17.716Z,2.73
2023-04-22T08:09:16.679Z,2.74
2023-04-22T08:10:16.672Z,2.77
2023-04-22T08:11:16.652Z,2.79
2023-04-22T08:12:16.653Z,2.79
2023-04-22T08:13:18.198Z,2.83
2023-04-22T08:14:16.630Z,2.83
2023-04-22T08:15:16.618Z,2.83
2023-04-22T08:16:16.601Z,2.81
2023-04-22T08:17:16.596Z,2.75
2023-04-22T08:18:16.648Z,2.80
2023-04-22T08:19:16.703Z,2.83
2023-04-22T08:20:16.770Z,2.74
2023-04-22T08:21:16.824Z,2.82
2023-04-22T08:22:16.887Z,2.73
2023-04-22T08:23:16.922Z,2.77
2023-04-22T08:24:16.979Z,2.75
2023-04-22T08:25:17.036Z,2.81
2023-04-22T08:26:17.071Z,2.75
2023-04-22T08:27:17.105Z,2.73
2023-04-22T08:28:17.148Z,2.80
2023-04-22T08:29:17.167Z,2.79
2023-04-22T08:30:17.164Z,2.83
2023-04-22T08:31:17.214Z,2.76
2023-04-22T08:32:17.183Z,2.77
2023-04-22T08:33:17.200Z,2.80
2023-04-22T08:34:17.171Z,2.80
2023-04-22T08:35:17.168Z,2.79
2023-04-22T08:36:17.162Z,2.82
2023-04-22T08:37:17.163Z,2.80
2023-04-22T08:38:17.159Z,2.77
2023-04-22T08:39:17.163Z,2.78
2023-04-22T08:40:17.155Z,2.72
2023-04-22T08:41:17.159Z,2.81
2023-04-22T08:42:17.154Z,2.72
2023-04-22T08:43:17.159Z,2.77
2023-04-22T08:44:17.168Z,2.79
2023-04-22T08:45:17.164Z,2.75
2023-04-22T08:46:17.177Z,2.77
2023-04-22T08:47:17.155Z,2.75
2023-04-22T08:48:17.163Z,2.78
2023-04-22T08:49:17.151Z,2.72
2023-04-22T08:50:17.158Z,2.79
2023-04-22T08:51:17.174Z,2.74
2023-04-22T08:52:17.191Z,2.84
2023-04-22T08:53:17.170Z,2.76
2023-04-22T08:54:17.245Z,2.73
2023-04-22T08:55:17.191Z,2.77
2023-04-22T08:56:17.220Z,2.74
2023-04-22T08:57:17.202Z,2.79
2023-04-22T08:58:17.211Z,2.77
2023-04-22T08:59:17.209Z,2.77
2023-04-22T09:00:17.191Z,2.68
2023-04-22T09:01:17.198Z,2.72
2023-04-22T09:02:17.233Z,2.78
2023-04-22T09:03:17.250Z,2.71
2023-04-22T09:04:17.282Z,2.74
2023-04-22T09:05:17.206Z,2.73
2023-04-22T09:06:17.206Z,2.74
2023-04-22T09:07:17.212Z,2.73
2023-04-22T09:08:17.209Z,2.75
2023-04-22T09:09:17.222Z,2.67
2023-04-22T09:10:17.230Z,2.74
2023-04-22T09:11:17.248Z,2.72
2023-04-22T09:12:17.228Z,2.69
2023-04-22T09:13:17.231Z,2.67
2023-04-22T09:14:17.228Z,2.66
2023-04-22T09:15:17.239Z,2.69
2023-04-22T09:16:17.293Z,2.68
2023-04-22T09:17:17.269Z,2.68
2023-04-22T09:18:17.273Z,2.63
2023-04-22T09:19:17.288Z,2.64
2023-04-22T09:20:17.321Z,2.70
2023-04-22T09:21:17.354Z,2.63
2023-04-22T09:22:17.358Z,2.61
2023-04-22T09:23:17.380Z,2.66
2023-04-22T09:24:17.406Z,2.68
2023-04-22T09:25:17.498Z,2.67
2023-04-22T09:26:17.499Z,2.68
2023-04-22T09:27:17.560Z,2.60
2023-04-22T09:28:17.613Z,2.60
2023-04-22T09:29:17.666Z,2.65
2023-04-22T09:30:17.732Z,2.66
2023-04-22T09:31:17.797Z,2.67
2023-04-22T09:32:17.820Z,2.66
2023-04-22T09:33:17.882Z,2.64
2023-04-22T09:34:17.957Z,2.67
2023-04-22T09:35:17.999Z,2.63
2023-04-22T09:36:18.060Z,2.67
2023-04-22T09:37:18.103Z,2.59
2023-04-22T09:38:18.158Z,2.55
2023-04-22T09:39:18.216Z,2.59
2023-04-22T09:40:18.321Z,2.64
2023-04-22T09:41:18.323Z,2.67
2023-04-22T09:42:18.373Z,2.64
2023-04-22T09:43:18.414Z,2.62
2023-04-22T09:44:18.463Z,2.56
2023-04-22T09:45:18.506Z,2.62
2023-04-22T09:46:18.610Z,2.65
2023-04-22T09:47:18.585Z,2.62
2023-04-22T09:48:18.635Z,2.62
2023-04-22T09:49:18.691Z,2.61
2023-04-22T09:50:18.743Z,2.59
2023-04-22T09:51:18.779Z,2.65
2023-04-22T09:52:18.825Z,2.61
2023-04-22T09:53:18.896Z,2.60
2023-04-22T09:54:18.911Z,2.65
2023-04-22T09:55:18.944Z,2.62
2023-04-22T09:56:19.001Z,2.61
2023-04-22T09:57:19.041Z,2.62
2023-04-22T09:58:19.091Z,2.66
2023-04-22T09:59:19.138Z,2.61
2023-04-22T10:00:19.177Z,2.68
2023-04-22T10:01:19.286Z,2.60
2023-04-22T10:02:19.370Z,2.64
2023-04-22T10:03:19.412Z,2.62
2023-04-22T10:04:19.400Z,2.61
2023-04-22T10:05:19.421Z,2.59
2023-04-22T10:06:19.461Z,2.66
2023-04-22T10:07:19.508Z,2.68
2023-04-22T10:08:19.553Z,2.63
2023-04-22T10:09:19.599Z,2.58
2023-04-22T10:10:19.650Z,2.67
2023-04-22T10:11:19.712Z,2.63
2023-04-22T10:12:26.106Z,2.64
2023-04-22T10:13:20.746Z,2.64
2023-04-22T10:14:19.730Z,2.64
2023-04-22T10:15:19.725Z,2.65
2023-04-22T10:16:19.741Z,2.66
2023-04-22T10:17:19.700Z,2.67
2023-04-22T10:18:19.701Z,2.64
2023-04-22T10:19:19.759Z,2.61
2023-04-22T10:20:19.678Z,2.65
2023-04-22T10:21:19.659Z,2.64
2023-04-22T10:22:19.656Z,2.62
2023-04-22T10:23:19.692Z,2.62
2023-04-22T10:24:19.750Z,2.62
2023-04-22T10:25:19.797Z,2.61
2023-04-22T10:26:19.868Z,2.63
2023-04-22T10:27:19.923Z,2.60
2023-04-22T10:28:19.997Z,2.63
2023-04-22T10:29:20.043Z,2.61
2023-04-22T10:30:20.114Z,2.63
2023-04-22T10:31:20.194Z,2.65
2023-04-22T10:32:20.254Z,2.66
2023-04-22T10:33:20.288Z,2.59
2023-04-22T10:34:20.353Z,2.61
2023-04-22T10:35:20.445Z,2.63
2023-04-22T10:36:20.489Z,2.63
2023-04-22T10:37:20.550Z,2.63
2023-04-22T10:38:20.603Z,2.63
2023-04-22T10:39:20.661Z,2.61
2023-04-22T10:40:20.719Z,2.64
2023-04-22T10:41:20.782Z,2.59
2023-04-22T10:42:20.854Z,2.64
2023-04-22T10:43:20.914Z,2.63
2023-04-22T10:44:20.966Z,2.66
2023-04-22T10:45:21.043Z,2.64
2023-04-22T10:46:21.157Z,2.58
2023-04-22T10:47:21.137Z,2.60
2023-04-22T10:48:21.168Z,2.59
2023-04-22T10:49:21.188Z,2.63
2023-04-22T10:50:21.250Z,2.60
2023-04-22T10:51:21.261Z,2.57
2023-04-22T10:52:21.259Z,2.63
2023-04-22T10:53:21.263Z,2.60
2023-04-22T10:54:21.262Z,2.58
2023-04-22T10:55:21.317Z,2.59
2023-04-22T10:56:21.276Z,2.62
2023-04-22T10:57:21.259Z,2.63
2023-04-22T10:58:21.260Z,2.57
2023-04-22T10:59:21.264Z,2.65
2023-04-22T11:00:21.279Z,2.51
2023-04-22T11:01:21.374Z,2.56
2023-04-22T11:02:21.277Z,2.59
2023-04-22T11:03:21.516Z,2.54
2023-04-22T11:04:21.376Z,2.61
2023-04-22T11:05:22.849Z,2.52
2023-04-22T11:06:21.548Z,2.60
2023-04-22T11:07:21.540Z,2.59
2023-04-22T11:08:21.536Z,2.60
2023-04-22T11:09:21.542Z,2.59
2023-04-22T11:10:21.543Z,2.58
2023-04-22T11:11:21.547Z,2.58
2023-04-22T11:12:21.548Z,2.62
2023-04-22T11:13:21.636Z,2.58
2023-04-22T11:14:21.558Z,2.56
2023-04-22T11:15:21.561Z,2.50
2023-04-22T11:16:22.381Z,2.57
2023-04-22T11:17:21.615Z,2.57
2023-04-22T11:18:21.591Z,2.56
2023-04-22T11:19:21.593Z,2.55
2023-04-22T11:20:21.590Z,2.58
2023-04-22T11:21:21.636Z,2.57
2023-04-22T11:22:21.604Z,2.57
2023-04-22T11:23:21.605Z,2.54
2023-04-22T11:24:21.626Z,2.53
2023-04-22T11:25:21.628Z,2.55
2023-04-22T11:26:21.646Z,2.48
2023-04-22T11:27:21.648Z,2.48
2023-04-22T11:28:21.689Z,2.52
2023-04-22T11:29:21.672Z,2.53
2023-04-22T11:30:21.687Z,2.55
2023-04-22T11:31:21.705Z,2.52
2023-04-22T11:32:21.688Z,2.55
2023-04-22T11:33:21.710Z,2.58
2023-04-22T11:34:21.711Z,2.57
2023-04-22T11:35:21.723Z,2.55
2023-04-22T11:36:21.734Z,2.54
2023-04-22T11:37:21.744Z,2.53
2023-04-22T11:38:21.763Z,2.52
2023-04-22T11:39:21.760Z,2.46
2023-04-22T11:40:30.622Z,2.52
2023-04-22T11:41:22.772Z,2.53
2023-04-22T11:42:21.770Z,2.54
2023-04-22T11:43:21.777Z,2.54
2023-04-22T11:44:21.758Z,2.53
2023-04-22T11:45:21.751Z,2.54
2023-04-22T11:46:22.456Z,2.55
2023-04-22T11:47:21.757Z,2.50
2023-04-22T11:48:21.743Z,2.53
2023-04-22T11:49:21.753Z,2.51
2023-04-22T11:50:21.744Z,2.48
2023-04-22T11:51:21.726Z,2.50
2023-04-22T11:52:21.719Z,2.50
2023-04-22T11:53:21.723Z,2.50
2023-04-22T11:54:21.708Z,2.54
2023-04-22T11:55:21.708Z,2.52
2023-04-22T11:56:21.720Z,2.48
2023-04-22T11:57:21.703Z,2.44
2023-04-22T11:58:21.697Z,2.45
2023-04-22T11:59:21.692Z,2.45
2023-04-22T12:00:21.691Z,2.40
2023-04-22T12:01:21.687Z,2.50
2023-04-22T12:02:21.760Z,2.46
2023-04-22T12:03:21.786Z,2.50
2023-04-22T12:04:21.694Z,2.53
2023-04-22T12:05:21.676Z,2.46
2023-04-22T12:06:21.654Z,2.45
2023-04-22T12:07:21.652Z,2.45
2023-04-22T12:08:21.674Z,2.42
2023-04-22T12:09:21.636Z,2.48
2023-04-22T12:10:21.634Z,2.48
2023-04-22T12:11:21.647Z,2.49
2023-04-22T12:12:21.628Z,2.42
2023-04-22T12:13:21.620Z,2.45
2023-04-22T12:14:21.623Z,2.44
2023-04-22T12:15:21.625Z,2.50
2023-04-22T12:16:21.704Z,2.43
2023-04-22T12:17:21.695Z,2.47
2023-04-22T12:18:21.661Z,2.46
2023-04-22T12:19:21.682Z,2.46
2023-04-22T12:20:24.118Z,2.43
2023-04-22T12:21:21.760Z,2.50
2023-04-22T12:22:21.690Z,2.47
2023-04-22T12:23:21.689Z,2.50
2023-04-22T12:24:21.684Z,2.51
2023-04-22T12:25:21.697Z,2.44
2023-04-22T12:26:23.747Z,2.48
2023-04-22T12:27:21.690Z,2.48
2023-04-22T12:28:21.668Z,2.49
2023-04-22T12:29:21.675Z,2.48
2023-04-22T12:30:21.665Z,2.48
2023-04-22T12:31:21.950Z,2.47
2023-04-22T12:32:23.668Z,2.45
2023-04-22T12:33:21.657Z,2.45
2023-04-22T12:34:21.642Z,2.46
2023-04-22T12:35:21.637Z,2.48
2023-04-22T12:36:21.659Z,2.44
2023-04-22T12:37:21.625Z,2.50
2023-04-22T12:38:21.628Z,2.47
2023-04-22T12:39:21.613Z,2.50
2023-04-22T12:40:21.618Z,2.48
2023-04-22T12:41:21.592Z,2.42
2023-04-22T12:42:21.590Z,2.49
2023-04-22T12:43:21.579Z,2.46
2023-04-22T12:44:23.208Z,2.48
2023-04-22T12:45:21.551Z,2.49
2023-04-22T12:46:21.631Z,2.49
2023-04-22T12:47:21.593Z,2.49
2023-04-22T12:48:21.524Z,2.49
2023-04-22T12:49:21.525Z,2.45
2023-04-22T12:50:21.503Z,2.48
2023-04-22T12:51:21.505Z,2.45
2023-04-22T12:52:21.494Z,2.48
2023-04-22T12:53:21.494Z,2.44
2023-04-22T12:54:21.482Z,2.48
2023-04-22T12:55:21.464Z,2.42
2023-04-22T12:56:21.592Z,2.51
2023-04-22T12:57:21.437Z,2.38
2023-04-22T12:58:21.461Z,2.46
2023-04-22T12:59:21.439Z,2.43
2023-04-22T13:00:21.419Z,2.44
2023-04-22T13:01:21.441Z,2.46
2023-04-22T13:02:21.478Z,2.42
2023-04-22T13:03:21.562Z,2.47
2023-04-22T13:04:21.525Z,2.43
2023-04-22T13:05:21.380Z,2.39
2023-04-22T13:06:21.388Z,2.43
2023-04-22T13:07:21.367Z,2.42
2023-04-22T13:08:21.367Z,2.40
2023-04-22T13:09:21.379Z,2.46
2023-04-22T13:10:21.380Z,2.42
2023-04-22T13:11:21.353Z,2.43
2023-04-22T13:12:21.352Z,2.39
2023-04-22T13:13:21.352Z,2.34
2023-04-22T13:14:21.360Z,2.36
2023-04-22T13:15:22.089Z,2.38
2023-04-22T13:16:21.381Z,2.37
2023-04-22T13:17:21.371Z,2.40
2023-04-22T13:18:21.339Z,2.37
2023-04-22T13:19:21.348Z,2.39